Pagrindinis puslapis
METAR-TAF:

METAR-TAF

Oro uostai :

Piarko tarptautinis oro uostas

Port of Speinas, Trinidadas, Trinidadas ir Tobagas

platuma: 10-37N, ilguma: 061-21W, Aukštis: 12 m

Dabartinis oras

Ataskaita buvo paskelbta 57 minutes, ne 04:00 UTC
Ramus vėjas
Temperatūra 26°C
Drėgmė 89%
Slėgis 1011 hPa
Matomumas 10 km arba daugiau
Mažai debesys ne aukštis 1800 ft

METAR: TTPP 210400Z 00000KT 9999 FEW018 26/24 Q1011 NOSIG

Laikas: 00:57 (04:57 UTC)

Prognozė

Ataskaita buvo paskelbta 6 valandos ir 57 minutes, ne 22:00 UTC
Prognozė galioja nuo 21 metu 00 UTC su 21 metu 24 UTC
Vėjas kt iš Šiaurės
Matomumas 10 km arba daugiau
Mažai debesys ne aukštis 1800 ft
Tapsmas
nuo 21 metu 12 UTC su 21 metu 14 UTC
Vėjas 12 kt iš Rytų/Pietryčių
Tikimybė 40% :
Laikinai
nuo 21 metu 17 UTC su 21 metu 21 UTC
Matomumas: 8000 m
Išsisklaidę debesys ne aukštis 1500 ft

TAF: TTPP 202200Z 2100/2124 00000KT 9999 FEW018 BECMG 2112/2114 11012KT PROB40 TEMPO 2117/2121 8000 SHRA/VCSH SCT015

Orai ataskaitas ir orų prognozės (METAR, TAF).

turimą stotys yra geltonos ir raudonos taškus žemėlapyje.

Perkelti pele per norėdami pamatyti stoties vardą.

Tada spustelėkite, norėdami matyti oro stebėjimo ir prognozės.

Norėdami pakeisti žemėlapį: spustelėkite ant žalios mygtukų su juodo kryžiaus žemyn,; žalią mygtuką su brūkšneliu, jei norite nutolinti; arba žalių rodyklių gretimoms žemėlapius.


METAR-TAF: